Pukou, China
Current Conditions -  °F | °C
As of 11:00 PM on Monday 24 Nov 2014 (Local Time) from ZSNJ Reporting Station
Broken Clouds Broken Clouds  
Wind Chill: 52°   Ceiling: 4000
Heat Index: 52°   Visibility: 6mi
Dew Point: 48°   Wind: 2mph
Humidity: 88%   Direction: NA
Pressure: 30.15"   Gusts: NA
Location:  32.1°N, 118.71°E
Report Text: ZSNJ 241500Z VRB01MPS 9999 BKN040 11/09 Q1021 NOSIG
Loading
Personal Weather Stations






























Interactive Weather Map New forecast layout! Learn more

10-Day Weather Forecast

Advertisements
Track Severe Weather on mobile